sensor_id;sensor_type;location;lat;lon;timestamp;temperature;humidity
1429;DHT22;708;51.442;7.016;2023-06-10T00:00:41;21.70;99.90
1429;DHT22;708;51.442;7.016;2023-06-10T00:03:08;21.60;99.90
1429;DHT22;708;51.442;7.016;2023-06-10T00:05:35;21.60;99.90
1429;DHT22;708;51.442;7.016;2023-06-10T00:08:04;21.50;99.90
1429;DHT22;708;51.442;7.016;2023-06-10T00:10:33;21.50;99.90
1429;DHT22;708;51.442;7.016;2023-06-10T00:13:00;21.50;99.90
1429;DHT22;708;51.442;7.016;2023-06-10T00:15:28;21.50;99.90
1429;DHT22;708;51.442;7.016;2023-06-10T00:17:56;21.40;99.90
1429;DHT22;708;51.442;7.016;2023-06-10T00:20:23;21.40;99.90
1429;DHT22;708;51.442;7.016;2023-06-10T00:22:50;21.40;99.90
1429;DHT22;708;51.442;7.016;2023-06-10T00:25:17;21.40;99.90
1429;DHT22;708;51.442;7.016;2023-06-10T00:27:44;21.30;99.90
1429;DHT22;708;51.442;7.016;2023-06-10T00:30:11;21.30;99.90
1429;DHT22;708;51.442;7.016;2023-06-10T00:32:38;21.30;99.90
1429;DHT22;708;51.442;7.016;2023-06-10T00:35:07;21.20;99.90
1429;DHT22;708;51.442;7.016;2023-06-10T00:37:34;21.20;99.90
1429;DHT22;708;51.442;7.016;2023-06-10T00:40:02;21.20;99.90
1429;DHT22;708;51.442;7.016;2023-06-10T00:42:28;21.20;99.90
1429;DHT22;708;51.442;7.016;2023-06-10T00:44:55;21.10;99.90
1429;DHT22;708;51.442;7.016;2023-06-10T00:47:22;21.10;99.90
1429;DHT22;708;51.442;7.016;2023-06-10T00:49:50;21.10;99.90
1429;DHT22;708;51.442;7.016;2023-06-10T00:52:18;21.10;99.90
1429;DHT22;708;51.442;7.016;2023-06-10T00:54:46;21.00;99.90
1429;DHT22;708;51.442;7.016;2023-06-10T00:57:13;21.00;99.90
1429;DHT22;708;51.442;7.016;2023-06-10T00:59:40;21.00;99.90
1429;DHT22;708;51.442;7.016;2023-06-10T01:02:07;21.00;99.90
1429;DHT22;708;51.442;7.016;2023-06-10T01:04:34;20.90;99.90
1429;DHT22;708;51.442;7.016;2023-06-10T01:07:09;20.90;1.00
1429;DHT22;708;51.442;7.016;2023-06-10T01:09:46;20.90;1.00
1429;DHT22;708;51.442;7.016;2023-06-10T01:12:22;20.80;1.00
1429;DHT22;708;51.442;7.016;2023-06-10T01:14:54;20.70;37.10
1429;DHT22;708;51.442;7.016;2023-06-10T01:17:22;20.60;99.90
1429;DHT22;708;51.442;7.016;2023-06-10T01:19:54;20.60;99.90
1429;DHT22;708;51.442;7.016;2023-06-10T01:22:23;20.60;99.90
1429;DHT22;708;51.442;7.016;2023-06-10T01:24:52;20.50;99.90
1429;DHT22;708;51.442;7.016;2023-06-10T01:27:20;20.50;1.00
1429;DHT22;708;51.442;7.016;2023-06-10T01:29:52;20.40;1.00
1429;DHT22;708;51.442;7.016;2023-06-10T01:32:25;20.40;18.20
1429;DHT22;708;51.442;7.016;2023-06-10T01:34:54;20.40;99.90
1429;DHT22;708;51.442;7.016;2023-06-10T01:37:24;20.30;99.90
1429;DHT22;708;51.442;7.016;2023-06-10T01:39:55;20.40;99.90
1429;DHT22;708;51.442;7.016;2023-06-10T01:42:23;20.30;99.90
1429;DHT22;708;51.442;7.016;2023-06-10T01:44:51;20.40;99.90
1429;DHT22;708;51.442;7.016;2023-06-10T01:47:17;20.30;99.90
1429;DHT22;708;51.442;7.016;2023-06-10T01:49:45;20.30;99.90
1429;DHT22;708;51.442;7.016;2023-06-10T01:52:12;20.30;99.90
1429;DHT22;708;51.442;7.016;2023-06-10T01:54:40;20.30;99.90
1429;DHT22;708;51.442;7.016;2023-06-10T01:57:07;20.20;99.90
1429;DHT22;708;51.442;7.016;2023-06-10T01:59:33;20.10;1.00
1429;DHT22;708;51.442;7.016;2023-06-10T02:02:02;20.10;64.50
1429;DHT22;708;51.442;7.016;2023-06-10T02:04:28;20.10;99.90
1429;DHT22;708;51.442;7.016;2023-06-10T02:06:55;20.00;99.90
1429;DHT22;708;51.442;7.016;2023-06-10T02:09:22;20.00;1.00
1429;DHT22;708;51.442;7.016;2023-06-10T02:11:50;19.90;99.90
1429;DHT22;708;51.442;7.016;2023-06-10T02:14:17;19.90;1.00
1429;DHT22;708;51.442;7.016;2023-06-10T02:16:43;19.80;76.60
1429;DHT22;708;51.442;7.016;2023-06-10T02:19:12;19.70;99.90
1429;DHT22;708;51.442;7.016;2023-06-10T02:21:38;19.70;1.00
1429;DHT22;708;51.442;7.016;2023-06-10T02:24:06;19.70;1.00
1429;DHT22;708;51.442;7.016;2023-06-10T02:26:33;19.70;1.00
1429;DHT22;708;51.442;7.016;2023-06-10T02:29:01;19.70;1.00
1429;DHT22;708;51.442;7.016;2023-06-10T02:31:28;19.70;1.00
1429;DHT22;708;51.442;7.016;2023-06-10T02:33:56;19.70;99.90
1429;DHT22;708;51.442;7.016;2023-06-10T02:36:23;19.70;99.90
1429;DHT22;708;51.442;7.016;2023-06-10T02:38:52;19.70;99.90
1429;DHT22;708;51.442;7.016;2023-06-10T02:41:19;19.70;1.00
1429;DHT22;708;51.442;7.016;2023-06-10T02:43:47;19.60;1.00
1429;DHT22;708;51.442;7.016;2023-06-10T02:46:15;19.60;1.00
1429;DHT22;708;51.442;7.016;2023-06-10T02:48:42;19.60;1.00
1429;DHT22;708;51.442;7.016;2023-06-10T02:51:10;19.60;1.00
1429;DHT22;708;51.442;7.016;2023-06-10T02:53:36;19.60;1.00
1429;DHT22;708;51.442;7.016;2023-06-10T02:56:03;19.60;1.00
1429;DHT22;708;51.442;7.016;2023-06-10T02:58:31;19.50;20.60
1429;DHT22;708;51.442;7.016;2023-06-10T03:00:58;19.50;99.90
1429;DHT22;708;51.442;7.016;2023-06-10T03:03:26;19.50;99.90
1429;DHT22;708;51.442;7.016;2023-06-10T03:05:53;19.40;99.90
1429;DHT22;708;51.442;7.016;2023-06-10T03:08:19;19.40;99.90
1429;DHT22;708;51.442;7.016;2023-06-10T03:10:46;19.30;1.00
1429;DHT22;708;51.442;7.016;2023-06-10T03:13:13;19.30;1.00
1429;DHT22;708;51.442;7.016;2023-06-10T03:15:40;19.30;1.00
1429;DHT22;708;51.442;7.016;2023-06-10T03:18:07;19.30;1.00
1429;DHT22;708;51.442;7.016;2023-06-10T03:20:35;19.20;99.90
1429;DHT22;708;51.442;7.016;2023-06-10T03:23:03;19.20;99.90
1429;DHT22;708;51.442;7.016;2023-06-10T03:25:30;19.20;99.90
1429;DHT22;708;51.442;7.016;2023-06-10T03:27:57;19.20;99.90
1429;DHT22;708;51.442;7.016;2023-06-10T03:30:24;19.10;99.90
1429;DHT22;708;51.442;7.016;2023-06-10T03:32:50;19.10;99.90
1429;DHT22;708;51.442;7.016;2023-06-10T03:35:17;19.20;99.90
1429;DHT22;708;51.442;7.016;2023-06-10T03:37:45;19.10;99.90
1429;DHT22;708;51.442;7.016;2023-06-10T03:40:12;19.10;1.00
1429;DHT22;708;51.442;7.016;2023-06-10T03:42:38;19.10;1.00
1429;DHT22;708;51.442;7.016;2023-06-10T03:45:06;19.10;1.00
1429;DHT22;708;51.442;7.016;2023-06-10T03:47:34;19.10;1.00
1429;DHT22;708;51.442;7.016;2023-06-10T03:50:02;19.10;1.00
1429;DHT22;708;51.442;7.016;2023-06-10T03:52:29;19.10;1.00
1429;DHT22;708;51.442;7.016;2023-06-10T03:54:57;19.20;1.00
1429;DHT22;708;51.442;7.016;2023-06-10T03:57:24;19.20;1.00
1429;DHT22;708;51.442;7.016;2023-06-10T03:59:51;19.20;1.00
1429;DHT22;708;51.442;7.016;2023-06-10T04:02:18;19.20;1.00
1429;DHT22;708;51.442;7.016;2023-06-10T04:04:44;19.20;1.00
1429;DHT22;708;51.442;7.016;2023-06-10T04:07:11;19.20;1.00
1429;DHT22;708;51.442;7.016;2023-06-10T04:09:39;19.30;1.00
1429;DHT22;708;51.442;7.016;2023-06-10T04:12:08;19.30;1.00
1429;DHT22;708;51.442;7.016;2023-06-10T04:14:36;19.40;99.90
1429;DHT22;708;51.442;7.016;2023-06-10T04:17:04;19.40;99.90
1429;DHT22;708;51.442;7.016;2023-06-10T04:19:32;19.50;99.90
1429;DHT22;708;51.442;7.016;2023-06-10T04:22:00;19.50;99.90
1429;DHT22;708;51.442;7.016;2023-06-10T04:24:27;19.50;99.90
1429;DHT22;708;51.442;7.016;2023-06-10T04:26:54;19.50;99.90
1429;DHT22;708;51.442;7.016;2023-06-10T04:29:22;19.60;99.90
1429;DHT22;708;51.442;7.016;2023-06-10T04:31:49;19.60;99.90
1429;DHT22;708;51.442;7.016;2023-06-10T04:34:16;19.70;99.90
1429;DHT22;708;51.442;7.016;2023-06-10T04:36:42;19.80;63.70
1429;DHT22;708;51.442;7.016;2023-06-10T04:39:10;19.80;1.00
1429;DHT22;708;51.442;7.016;2023-06-10T04:41:37;19.80;1.00
1429;DHT22;708;51.442;7.016;2023-06-10T04:44:03;19.90;99.90
1429;DHT22;708;51.442;7.016;2023-06-10T04:46:31;20.00;99.90
1429;DHT22;708;51.442;7.016;2023-06-10T04:48:58;20.10;1.00
1429;DHT22;708;51.442;7.016;2023-06-10T04:51:25;20.60;99.90
1429;DHT22;708;51.442;7.016;2023-06-10T04:53:52;21.30;99.90
1429;DHT22;708;51.442;7.016;2023-06-10T04:56:19;21.90;99.90
1429;DHT22;708;51.442;7.016;2023-06-10T04:58:45;22.40;99.90
1429;DHT22;708;51.442;7.016;2023-06-10T05:01:12;22.90;99.90
1429;DHT22;708;51.442;7.016;2023-06-10T05:03:40;23.50;99.90
1429;DHT22;708;51.442;7.016;2023-06-10T05:06:07;24.20;99.90
1429;DHT22;708;51.442;7.016;2023-06-10T05:08:34;24.60;99.90
1429;DHT22;708;51.442;7.016;2023-06-10T05:11:00;24.70;99.90
1429;DHT22;708;51.442;7.016;2023-06-10T05:13:27;25.00;99.90
1429;DHT22;708;51.442;7.016;2023-06-10T05:15:54;25.30;99.90
1429;DHT22;708;51.442;7.016;2023-06-10T05:18:21;25.90;99.90
1429;DHT22;708;51.442;7.016;2023-06-10T05:20:49;26.40;99.90
1429;DHT22;708;51.442;7.016;2023-06-10T05:23:15;27.00;99.90
1429;DHT22;708;51.442;7.016;2023-06-10T05:25:42;27.20;99.90
1429;DHT22;708;51.442;7.016;2023-06-10T05:28:09;27.30;99.90
1429;DHT22;708;51.442;7.016;2023-06-10T05:30:36;27.90;99.90
1429;DHT22;708;51.442;7.016;2023-06-10T05:33:03;28.60;98.50
1429;DHT22;708;51.442;7.016;2023-06-10T05:35:30;29.10;97.20
1429;DHT22;708;51.442;7.016;2023-06-10T05:37:58;29.70;95.50
1429;DHT22;708;51.442;7.016;2023-06-10T05:40:25;30.20;94.50
1429;DHT22;708;51.442;7.016;2023-06-10T05:42:52;30.60;92.80
1429;DHT22;708;51.442;7.016;2023-06-10T05:45:18;30.60;91.70
1429;DHT22;708;51.442;7.016;2023-06-10T05:47:46;30.80;91.00
1429;DHT22;708;51.442;7.016;2023-06-10T05:50:13;31.30;90.40
1429;DHT22;708;51.442;7.016;2023-06-10T05:52:39;32.00;87.50
1429;DHT22;708;51.442;7.016;2023-06-10T05:55:09;32.10;85.10
1429;DHT22;708;51.442;7.016;2023-06-10T05:57:35;32.40;83.10
1429;DHT22;708;51.442;7.016;2023-06-10T06:00:03;32.80;81.20
1429;DHT22;708;51.442;7.016;2023-06-10T06:02:30;32.90;79.40
1429;DHT22;708;51.442;7.016;2023-06-10T06:04:56;33.20;77.70
1429;DHT22;708;51.442;7.016;2023-06-10T06:07:23;33.50;75.10
1429;DHT22;708;51.442;7.016;2023-06-10T06:09:50;33.70;74.60
1429;DHT22;708;51.442;7.016;2023-06-10T06:12:18;33.60;71.90
1429;DHT22;708;51.442;7.016;2023-06-10T06:14:45;32.80;72.20
1429;DHT22;708;51.442;7.016;2023-06-10T06:17:12;32.50;72.10
1429;DHT22;708;51.442;7.016;2023-06-10T06:19:38;32.10;71.60
1429;DHT22;708;51.442;7.016;2023-06-10T06:22:05;32.00;72.60
1429;DHT22;708;51.442;7.016;2023-06-10T06:24:32;32.00;72.20
1429;DHT22;708;51.442;7.016;2023-06-10T06:26:59;31.80;72.00
1429;DHT22;708;51.442;7.016;2023-06-10T06:29:27;31.80;72.30
1429;DHT22;708;51.442;7.016;2023-06-10T06:31:55;31.70;71.90
1429;DHT22;708;51.442;7.016;2023-06-10T06:34:22;31.70;72.00
1429;DHT22;708;51.442;7.016;2023-06-10T06:36:48;31.70;72.50
1429;DHT22;708;51.442;7.016;2023-06-10T06:39:15;32.00;72.10
1429;DHT22;708;51.442;7.016;2023-06-10T06:41:42;32.20;70.90
1429;DHT22;708;51.442;7.016;2023-06-10T06:44:08;32.50;70.40
1429;DHT22;708;51.442;7.016;2023-06-10T06:46:36;32.70;69.80
1429;DHT22;708;51.442;7.016;2023-06-10T06:49:03;33.00;68.80
1429;DHT22;708;51.442;7.016;2023-06-10T06:51:30;33.10;67.80
1429;DHT22;708;51.442;7.016;2023-06-10T06:53:56;33.30;67.50
1429;DHT22;708;51.442;7.016;2023-06-10T06:56:24;33.50;66.80
1429;DHT22;708;51.442;7.016;2023-06-10T06:58:51;34.10;66.10
1429;DHT22;708;51.442;7.016;2023-06-10T07:01:18;34.60;65.10
1429;DHT22;708;51.442;7.016;2023-06-10T07:03:47;35.10;63.70
1429;DHT22;708;51.442;7.016;2023-06-10T07:06:13;35.30;61.80
1429;DHT22;708;51.442;7.016;2023-06-10T07:08:40;35.20;61.10
1429;DHT22;708;51.442;7.016;2023-06-10T07:11:07;34.80;61.20
1429;DHT22;708;51.442;7.016;2023-06-10T07:13:34;35.20;60.80
1429;DHT22;708;51.442;7.016;2023-06-10T07:16:01;35.30;59.70
1429;DHT22;708;51.442;7.016;2023-06-10T07:18:28;35.30;59.00
1429;DHT22;708;51.442;7.016;2023-06-10T07:20:56;35.40;59.30
1429;DHT22;708;51.442;7.016;2023-06-10T07:23:23;35.60;59.20
1429;DHT22;708;51.442;7.016;2023-06-10T07:25:50;35.60;58.90
1429;DHT22;708;51.442;7.016;2023-06-10T07:28:16;36.00;57.50
1429;DHT22;708;51.442;7.016;2023-06-10T07:30:43;36.00;58.00
1429;DHT22;708;51.442;7.016;2023-06-10T07:33:10;36.30;57.60
1429;DHT22;708;51.442;7.016;2023-06-10T07:35:37;36.40;57.40
1429;DHT22;708;51.442;7.016;2023-06-10T07:38:05;36.10;56.00
1429;DHT22;708;51.442;7.016;2023-06-10T07:40:32;36.30;56.10
1429;DHT22;708;51.442;7.016;2023-06-10T07:42:58;36.00;55.80
1429;DHT22;708;51.442;7.016;2023-06-10T07:45:25;36.30;55.70
1429;DHT22;708;51.442;7.016;2023-06-10T07:47:52;36.30;55.20
1429;DHT22;708;51.442;7.016;2023-06-10T07:50:19;36.00;55.40
1429;DHT22;708;51.442;7.016;2023-06-10T07:52:46;35.90;55.60
1429;DHT22;708;51.442;7.016;2023-06-10T07:55:14;35.90;55.70
1429;DHT22;708;51.442;7.016;2023-06-10T07:57:40;36.10;55.70
1429;DHT22;708;51.442;7.016;2023-06-10T08:00:08;36.70;55.50
1429;DHT22;708;51.442;7.016;2023-06-10T08:02:38;37.10;54.90
1429;DHT22;708;51.442;7.016;2023-06-10T08:05:05;37.40;54.70
1429;DHT22;708;51.442;7.016;2023-06-10T08:07:32;38.00;54.50
1429;DHT22;708;51.442;7.016;2023-06-10T08:09:58;38.40;54.10
1429;DHT22;708;51.442;7.016;2023-06-10T08:12:26;38.80;52.80
1429;DHT22;708;51.442;7.016;2023-06-10T08:14:53;38.80;53.30
1429;DHT22;708;51.442;7.016;2023-06-10T08:17:20;39.20;51.90
1429;DHT22;708;51.442;7.016;2023-06-10T08:19:47;39.00;51.40
1429;DHT22;708;51.442;7.016;2023-06-10T08:22:14;39.10;51.10
1429;DHT22;708;51.442;7.016;2023-06-10T08:24:44;39.10;50.90
1429;DHT22;708;51.442;7.016;2023-06-10T08:27:10;39.00;50.90
1429;DHT22;708;51.442;7.016;2023-06-10T08:29:39;38.70;51.00
1429;DHT22;708;51.442;7.016;2023-06-10T08:32:06;38.30;51.50
1429;DHT22;708;51.442;7.016;2023-06-10T08:34:33;38.10;51.80
1429;DHT22;708;51.442;7.016;2023-06-10T08:37:00;37.80;52.10
1429;DHT22;708;51.442;7.016;2023-06-10T08:39:27;37.50;52.40
1429;DHT22;708;51.442;7.016;2023-06-10T08:42:04;37.20;52.80
1429;DHT22;708;51.442;7.016;2023-06-10T08:44:35;37.30;53.00
1429;DHT22;708;51.442;7.016;2023-06-10T08:47:08;37.00;53.30
1429;DHT22;708;51.442;7.016;2023-06-10T08:49:38;37.00;52.40
1429;DHT22;708;51.442;7.016;2023-06-10T08:52:07;37.40;52.80
1429;DHT22;708;51.442;7.016;2023-06-10T08:54:38;37.40;52.70
1429;DHT22;708;51.442;7.016;2023-06-10T08:57:07;37.40;53.10
1429;DHT22;708;51.442;7.016;2023-06-10T08:59:35;37.10;53.10
1429;DHT22;708;51.442;7.016;2023-06-10T09:02:05;37.00;53.40
1429;DHT22;708;51.442;7.016;2023-06-10T09:04:33;37.40;53.40
1429;DHT22;708;51.442;7.016;2023-06-10T09:07:02;37.90;52.80
1429;DHT22;708;51.442;7.016;2023-06-10T09:09:30;38.50;52.00
1429;DHT22;708;51.442;7.016;2023-06-10T09:11:57;39.00;51.70
1429;DHT22;708;51.442;7.016;2023-06-10T09:14:24;39.30;51.40
1429;DHT22;708;51.442;7.016;2023-06-10T09:16:50;39.30;51.20
1429;DHT22;708;51.442;7.016;2023-06-10T09:19:18;39.70;51.00
1429;DHT22;708;51.442;7.016;2023-06-10T09:21:46;40.00;50.80
1429;DHT22;708;51.442;7.016;2023-06-10T09:24:13;40.40;50.60
1429;DHT22;708;51.442;7.016;2023-06-10T09:26:41;40.40;50.00
1429;DHT22;708;51.442;7.016;2023-06-10T09:29:08;40.40;49.80
1429;DHT22;708;51.442;7.016;2023-06-10T09:31:38;39.80;49.80
1429;DHT22;708;51.442;7.016;2023-06-10T09:34:07;39.00;50.00
1429;DHT22;708;51.442;7.016;2023-06-10T09:36:36;38.50;50.70
1429;DHT22;708;51.442;7.016;2023-06-10T09:39:04;38.60;50.60
1429;DHT22;708;51.442;7.016;2023-06-10T09:41:34;38.60;50.50
1429;DHT22;708;51.442;7.016;2023-06-10T09:44:01;38.40;50.40
1429;DHT22;708;51.442;7.016;2023-06-10T09:46:31;38.30;50.80
1429;DHT22;708;51.442;7.016;2023-06-10T09:48:58;38.20;50.60
1429;DHT22;708;51.442;7.016;2023-06-10T09:51:25;38.10;51.10
1429;DHT22;708;51.442;7.016;2023-06-10T09:53:54;38.30;51.20
1429;DHT22;708;51.442;7.016;2023-06-10T09:56:21;37.90;50.90
1429;DHT22;708;51.442;7.016;2023-06-10T09:58:58;37.90;51.10
1429;DHT22;708;51.442;7.016;2023-06-10T10:01:25;37.70;51.40
1429;DHT22;708;51.442;7.016;2023-06-10T10:03:52;37.40;51.30
1429;DHT22;708;51.442;7.016;2023-06-10T10:06:20;37.30;50.70
1429;DHT22;708;51.442;7.016;2023-06-10T10:08:48;37.30;51.50
1429;DHT22;708;51.442;7.016;2023-06-10T10:11:18;37.00;51.80
1429;DHT22;708;51.442;7.016;2023-06-10T10:13:49;36.70;52.30
1429;DHT22;708;51.442;7.016;2023-06-10T10:16:20;36.60;52.60
1429;DHT22;708;51.442;7.016;2023-06-10T10:18:52;36.80;52.90
1429;DHT22;708;51.442;7.016;2023-06-10T10:21:23;36.80;52.90
1429;DHT22;708;51.442;7.016;2023-06-10T10:23:53;36.80;53.40
1429;DHT22;708;51.442;7.016;2023-06-10T10:26:26;36.70;52.80
1429;DHT22;708;51.442;7.016;2023-06-10T10:29:01;36.20;52.60
1429;DHT22;708;51.442;7.016;2023-06-10T10:31:33;36.30;52.80
1429;DHT22;708;51.442;7.016;2023-06-10T10:34:04;36.20;52.40
1429;DHT22;708;51.442;7.016;2023-06-10T10:36:32;36.00;52.40
1429;DHT22;708;51.442;7.016;2023-06-10T10:38:59;35.50;53.30
1429;DHT22;708;51.442;7.016;2023-06-10T10:41:30;35.20;53.60
1429;DHT22;708;51.442;7.016;2023-06-10T10:43:58;34.70;54.50
1429;DHT22;708;51.442;7.016;2023-06-10T10:46:25;34.00;54.80
1429;DHT22;708;51.442;7.016;2023-06-10T10:48:54;33.00;55.60
1429;DHT22;708;51.442;7.016;2023-06-10T10:51:23;32.00;57.00
1429;DHT22;708;51.442;7.016;2023-06-10T10:54:09;31.50;58.60
1429;DHT22;708;51.442;7.016;2023-06-10T10:56:37;30.90;59.40
1429;DHT22;708;51.442;7.016;2023-06-10T10:59:05;30.40;59.50
1429;DHT22;708;51.442;7.016;2023-06-10T11:01:40;30.10;60.20
1429;DHT22;708;51.442;7.016;2023-06-10T11:04:07;30.00;60.70
1429;DHT22;708;51.442;7.016;2023-06-10T11:06:34;30.00;61.80
1429;DHT22;708;51.442;7.016;2023-06-10T11:09:25;29.90;62.50
1429;DHT22;708;51.442;7.016;2023-06-10T11:11:56;29.80;61.40
1429;DHT22;708;51.442;7.016;2023-06-10T11:14:27;29.70;61.00
1429;DHT22;708;51.442;7.016;2023-06-10T11:16:57;29.80;61.90
1429;DHT22;708;51.442;7.016;2023-06-10T11:19:34;29.80;61.50
1429;DHT22;708;51.442;7.016;2023-06-10T11:22:02;30.00;61.60
1429;DHT22;708;51.442;7.016;2023-06-10T11:24:29;30.20;61.40
1429;DHT22;708;51.442;7.016;2023-06-10T11:27:15;30.20;60.50
1429;DHT22;708;51.442;7.016;2023-06-10T11:29:57;30.20;61.10
1429;DHT22;708;51.442;7.016;2023-06-10T11:32:25;30.10;60.80
1429;DHT22;708;51.442;7.016;2023-06-10T11:34:56;30.10;61.00
1429;DHT22;708;51.442;7.016;2023-06-10T11:37:22;30.30;61.30
1429;DHT22;708;51.442;7.016;2023-06-10T11:39:52;30.40;61.00
1429;DHT22;708;51.442;7.016;2023-06-10T11:42:20;30.40;59.60
1429;DHT22;708;51.442;7.016;2023-06-10T11:44:49;30.30;58.90
1429;DHT22;708;51.442;7.016;2023-06-10T11:47:16;30.20;58.50
1429;DHT22;708;51.442;7.016;2023-06-10T11:49:43;30.20;60.00
1429;DHT22;708;51.442;7.016;2023-06-10T11:52:10;30.20;60.20
1429;DHT22;708;51.442;7.016;2023-06-10T11:54:37;30.20;60.20
1429;DHT22;708;51.442;7.016;2023-06-10T11:57:05;30.10;60.50
1429;DHT22;708;51.442;7.016;2023-06-10T11:59:35;30.20;60.20
1429;DHT22;708;51.442;7.016;2023-06-10T12:02:02;30.10;59.50
1429;DHT22;708;51.442;7.016;2023-06-10T12:04:28;30.00;60.00
1429;DHT22;708;51.442;7.016;2023-06-10T12:06:55;30.10;60.20
1429;DHT22;708;51.442;7.016;2023-06-10T12:09:23;30.20;61.30
1429;DHT22;708;51.442;7.016;2023-06-10T12:11:51;30.20;59.50
1429;DHT22;708;51.442;7.016;2023-06-10T12:14:52;30.30;59.90
1429;DHT22;708;51.442;7.016;2023-06-10T12:17:24;30.30;59.90
1429;DHT22;708;51.442;7.016;2023-06-10T12:19:51;30.20;59.30
1429;DHT22;708;51.442;7.016;2023-06-10T12:22:18;30.20;59.70
1429;DHT22;708;51.442;7.016;2023-06-10T12:24:56;30.40;59.60
1429;DHT22;708;51.442;7.016;2023-06-10T12:27:25;30.40;59.40
1429;DHT22;708;51.442;7.016;2023-06-10T12:29:55;30.40;59.00
1429;DHT22;708;51.442;7.016;2023-06-10T12:32:35;30.40;59.50
1429;DHT22;708;51.442;7.016;2023-06-10T12:35:04;30.30;59.70
1429;DHT22;708;51.442;7.016;2023-06-10T12:37:31;30.30;59.60
1429;DHT22;708;51.442;7.016;2023-06-10T12:40:00;30.30;59.50
1429;DHT22;708;51.442;7.016;2023-06-10T12:42:28;30.30;60.20
1429;DHT22;708;51.442;7.016;2023-06-10T12:44:58;30.30;59.40
1429;DHT22;708;51.442;7.016;2023-06-10T12:47:30;30.40;60.00
1429;DHT22;708;51.442;7.016;2023-06-10T12:49:58;30.40;59.60
1429;DHT22;708;51.442;7.016;2023-06-10T12:52:25;30.40;59.70
1429;DHT22;708;51.442;7.016;2023-06-10T12:54:52;30.40;59.60
1429;DHT22;708;51.442;7.016;2023-06-10T12:57:20;30.40;59.40
1429;DHT22;708;51.442;7.016;2023-06-10T12:59:47;30.50;59.70
1429;DHT22;708;51.442;7.016;2023-06-10T13:02:19;30.40;59.80
1429;DHT22;708;51.442;7.016;2023-06-10T13:04:49;30.50;60.00
1429;DHT22;708;51.442;7.016;2023-06-10T13:07:16;30.70;59.40
1429;DHT22;708;51.442;7.016;2023-06-10T13:09:43;30.50;59.40
1429;DHT22;708;51.442;7.016;2023-06-10T13:12:10;30.60;59.60
1429;DHT22;708;51.442;7.016;2023-06-10T13:14:37;30.70;59.40
1429;DHT22;708;51.442;7.016;2023-06-10T13:17:05;30.80;59.70
1429;DHT22;708;51.442;7.016;2023-06-10T13:19:33;30.80;58.90
1429;DHT22;708;51.442;7.016;2023-06-10T13:22:01;30.70;59.10
1429;DHT22;708;51.442;7.016;2023-06-10T13:24:28;30.80;59.80
1429;DHT22;708;51.442;7.016;2023-06-10T13:26:54;31.00;59.50
1429;DHT22;708;51.442;7.016;2023-06-10T13:29:22;31.20;59.40
1429;DHT22;708;51.442;7.016;2023-06-10T13:31:48;31.00;59.80
1429;DHT22;708;51.442;7.016;2023-06-10T13:34:15;30.90;59.50
1429;DHT22;708;51.442;7.016;2023-06-10T13:36:43;31.00;59.70
1429;DHT22;708;51.442;7.016;2023-06-10T13:39:11;31.00;59.20
1429;DHT22;708;51.442;7.016;2023-06-10T13:41:40;31.10;59.30
1429;DHT22;708;51.442;7.016;2023-06-10T13:44:07;31.00;59.10
1429;DHT22;708;51.442;7.016;2023-06-10T13:46:33;30.90;58.80
1429;DHT22;708;51.442;7.016;2023-06-10T13:49:00;31.00;58.60
1429;DHT22;708;51.442;7.016;2023-06-10T13:51:27;30.80;58.40
1429;DHT22;708;51.442;7.016;2023-06-10T13:53:56;30.80;58.30
1429;DHT22;708;51.442;7.016;2023-06-10T13:56:23;30.80;58.00
1429;DHT22;708;51.442;7.016;2023-06-10T13:58:50;30.80;58.20
1429;DHT22;708;51.442;7.016;2023-06-10T14:01:17;30.80;57.80
1429;DHT22;708;51.442;7.016;2023-06-10T14:03:44;30.80;58.40
1429;DHT22;708;51.442;7.016;2023-06-10T14:06:10;30.60;57.90
1429;DHT22;708;51.442;7.016;2023-06-10T14:08:41;30.70;58.40
1429;DHT22;708;51.442;7.016;2023-06-10T14:11:09;30.70;58.20
1429;DHT22;708;51.442;7.016;2023-06-10T14:13:36;30.60;58.00
1429;DHT22;708;51.442;7.016;2023-06-10T14:16:04;30.60;58.50
1429;DHT22;708;51.442;7.016;2023-06-10T14:18:31;30.70;58.20
1429;DHT22;708;51.442;7.016;2023-06-10T14:20:57;30.90;58.40
1429;DHT22;708;51.442;7.016;2023-06-10T14:23:24;30.90;58.60
1429;DHT22;708;51.442;7.016;2023-06-10T14:25:51;31.10;58.40
1429;DHT22;708;51.442;7.016;2023-06-10T14:28:19;31.00;58.30
1429;DHT22;708;51.442;7.016;2023-06-10T14:30:46;31.10;57.90
1429;DHT22;708;51.442;7.016;2023-06-10T14:33:13;31.10;57.70
1429;DHT22;708;51.442;7.016;2023-06-10T14:35:40;31.00;58.10
1429;DHT22;708;51.442;7.016;2023-06-10T14:38:08;30.90;58.60
1429;DHT22;708;51.442;7.016;2023-06-10T14:40:35;30.80;58.20
1429;DHT22;708;51.442;7.016;2023-06-10T14:43:02;30.90;58.20
1429;DHT22;708;51.442;7.016;2023-06-10T14:45:36;31.00;58.00
1429;DHT22;708;51.442;7.016;2023-06-10T14:48:05;31.10;58.20
1429;DHT22;708;51.442;7.016;2023-06-10T14:50:32;31.10;58.30
1429;DHT22;708;51.442;7.016;2023-06-10T14:52:59;31.10;58.70
1429;DHT22;708;51.442;7.016;2023-06-10T14:55:26;31.00;59.20
1429;DHT22;708;51.442;7.016;2023-06-10T14:57:53;31.10;59.10
1429;DHT22;708;51.442;7.016;2023-06-10T15:00:21;31.10;58.10
1429;DHT22;708;51.442;7.016;2023-06-10T15:02:51;31.10;58.10
1429;DHT22;708;51.442;7.016;2023-06-10T15:05:18;31.00;57.90
1429;DHT22;708;51.442;7.016;2023-06-10T15:07:46;31.00;58.40
1429;DHT22;708;51.442;7.016;2023-06-10T15:10:13;31.00;58.90
1429;DHT22;708;51.442;7.016;2023-06-10T15:12:41;31.00;58.00
1429;DHT22;708;51.442;7.016;2023-06-10T15:15:08;31.00;58.50
1429;DHT22;708;51.442;7.016;2023-06-10T15:17:35;31.00;58.60
1429;DHT22;708;51.442;7.016;2023-06-10T15:20:04;31.00;58.40
1429;DHT22;708;51.442;7.016;2023-06-10T15:22:32;30.90;58.50
1429;DHT22;708;51.442;7.016;2023-06-10T15:24:59;30.70;59.20
1429;DHT22;708;51.442;7.016;2023-06-10T15:27:26;30.60;58.30
1429;DHT22;708;51.442;7.016;2023-06-10T15:29:52;30.50;58.70
1429;DHT22;708;51.442;7.016;2023-06-10T15:32:19;30.40;58.20
1429;DHT22;708;51.442;7.016;2023-06-10T15:34:46;30.40;58.30
1429;DHT22;708;51.442;7.016;2023-06-10T15:37:15;30.40;58.60
1429;DHT22;708;51.442;7.016;2023-06-10T15:39:41;30.50;58.50
1429;DHT22;708;51.442;7.016;2023-06-10T15:42:08;30.50;58.30
1429;DHT22;708;51.442;7.016;2023-06-10T15:44:35;30.50;58.60
1429;DHT22;708;51.442;7.016;2023-06-10T15:47:02;30.50;59.20
1429;DHT22;708;51.442;7.016;2023-06-10T15:49:29;30.40;59.40
1429;DHT22;708;51.442;7.016;2023-06-10T15:51:55;30.40;59.80
1429;DHT22;708;51.442;7.016;2023-06-10T15:54:23;30.20;59.90
1429;DHT22;708;51.442;7.016;2023-06-10T15:56:50;30.10;60.30
1429;DHT22;708;51.442;7.016;2023-06-10T15:59:17;30.10;59.80
1429;DHT22;708;51.442;7.016;2023-06-10T16:01:44;30.10;60.20
1429;DHT22;708;51.442;7.016;2023-06-10T16:04:10;30.10;60.70
1429;DHT22;708;51.442;7.016;2023-06-10T16:06:37;30.00;60.70
1429;DHT22;708;51.442;7.016;2023-06-10T16:09:04;30.10;60.80
1429;DHT22;708;51.442;7.016;2023-06-10T16:11:33;30.10;61.00
1429;DHT22;708;51.442;7.016;2023-06-10T16:14:00;30.10;60.70
1429;DHT22;708;51.442;7.016;2023-06-10T16:16:26;30.10;61.00
1429;DHT22;708;51.442;7.016;2023-06-10T16:18:53;30.10;61.10
1429;DHT22;708;51.442;7.016;2023-06-10T16:21:20;30.10;60.90
1429;DHT22;708;51.442;7.016;2023-06-10T16:23:46;30.10;61.40